Time;durP1;ratioP1;P1;durP2;ratioP2;P2;SDS_P1;SDS_P2;PMS_P1;PMS_P2;Temp;Humidity;BMP_temperature;BMP_pressure;BME280_temperature;BME280_humidity;BME280_pressure;Samples;Min_cycle;Max_cycle;Signal;HPM_P1;HPM_P2
2021/03/15 00:00:25;;;;;;;9.48;5.95;;;9.00;99.90;;;9.27;84.42;100839.22;4938289;29;20466;-75
2021/03/15 00:02:52;;;;;;;12.02;6.78;;;9.00;99.90;;;9.34;84.73;100841.00;4937738;29;20102;-76
2021/03/15 00:05:20;;;;;;;14.07;7.10;;;9.10;99.90;;;9.44;84.18;100837.50;4937641;29;20090;-77
2021/03/15 00:07:48;;;;;;;13.50;6.47;;;9.20;99.90;;;9.46;84.28;100835.72;4937540;29;20067;-77
2021/03/15 00:10:15;;;;;;;11.75;5.82;;;9.30;99.90;;;9.47;83.87;100832.19;4937316;29;20048;-77
2021/03/15 00:12:44;;;;;;;14.65;7.18;;;9.20;99.90;;;9.52;84.00;100825.16;4937568;29;20079;-76
2021/03/15 00:15:17;;;;;;;16.38;7.22;;;9.30;99.90;;;9.51;83.93;100833.06;4920340;29;20296;-75
2021/03/15 00:17:45;;;;;;;13.85;6.68;;;9.30;99.90;;;9.36;84.60;100839.25;4937678;29;20098;-77
2021/03/15 00:20:18;;;;;;;14.75;7.25;;;9.20;99.90;;;9.22;84.66;100804.03;4937133;29;20498;-77
2021/03/15 00:22:48;;;;;;;14.35;6.50;;;9.10;99.90;;;9.22;85.27;100825.16;4937438;29;20048;-77
2021/03/15 00:25:17;;;;;;;12.85;7.55;;;9.10;99.90;;;8.97;86.30;100844.47;4937319;29;20040;-77
2021/03/15 00:27:47;;;;;;;14.40;7.07;;;8.90;99.90;;;8.99;87.09;100833.06;4936828;29;20421;-77
2021/03/15 00:30:18;;;;;;;18.85;8.00;;;8.80;99.90;;;8.86;87.28;100839.22;4937302;29;20146;-78
2021/03/15 00:32:46;;;;;;;21.15;7.63;;;8.70;99.90;;;8.86;88.00;100843.59;4936988;29;20410;-77
2021/03/15 00:35:16;;;;;;;18.50;7.88;;;8.70;99.90;;;8.92;87.40;100838.34;4920007;29;20079;-77
2021/03/15 00:37:47;;;;;;;27.47;7.70;;;8.70;99.90;;;8.76;88.20;100840.06;4937054;29;20146;-77
2021/03/15 00:40:17;;;;;;;16.20;7.30;;;8.60;99.90;;;8.81;88.86;100833.03;4936806;29;20047;-77
2021/03/15 00:42:48;;;;;;;18.92;7.35;;;8.70;99.90;;;8.91;88.51;100837.44;4936978;29;20043;-77
2021/03/15 00:45:18;;;;;;;19.65;7.10;;;8.70;99.90;;;8.78;88.63;100840.06;4919956;29;20055;-77
2021/03/15 00:47:46;;;;;;;20.85;7.13;;;8.70;99.90;;;8.81;88.86;100843.56;4936944;29;20044;-77
2021/03/15 00:50:19;;;;;;;20.48;8.15;;;8.60;99.90;;;8.70;89.20;100842.69;4936801;29;20043;-78
2021/03/15 00:52:47;;;;;;;22.67;8.45;;;8.50;99.90;;;8.65;89.28;100841.75;4936781;29;20055;-78
2021/03/15 00:55:14;;;;;;;22.52;7.72;;;8.50;99.90;;;8.78;89.32;100838.31;4919671;29;20051;-79
2021/03/15 00:57:46;;;;;;;21.00;8.35;;;8.60;99.90;;;8.62;89.66;100840.88;4919305;29;20055;-78
2021/03/15 01:00:19;;;;;;;21.88;7.78;;;8.50;99.90;;;8.71;89.89;100840.94;4919595;29;20458;-78
2021/03/15 01:03:07;;;;;;;27.05;7.43;;;8.50;99.90;;;8.60;89.37;100827.69;4932538;29;20051;-78
2021/03/15 01:05:38;;;;;;;21.83;7.25;;;8.50;99.90;;;8.85;89.65;100841.81;4936432;29;20494;-78
2021/03/15 01:08:11;;;;;;;20.95;7.00;;;8.60;99.90;;;8.77;89.15;100846.19;4919538;29;20052;-78
2021/03/15 01:10:41;;;;;;;20.52;7.95;;;8.60;99.90;;;8.65;89.76;100846.19;4919653;29;20051;-78
2021/03/15 01:13:11;;;;;;;21.83;7.38;;;8.50;99.90;;;8.71;89.42;100852.34;4919634;29;20540;-78
2021/03/15 01:15:41;;;;;;;17.80;7.25;;;8.50;99.90;;;8.59;89.69;100844.41;4919301;29;20510;-79
2021/03/15 01:18:15;;;;;;;21.70;8.13;;;8.50;99.90;;;8.55;89.79;100847.03;4919326;29;20476;-78
2021/03/15 01:20:42;;;;;;;18.48;6.65;;;8.40;99.90;;;8.59;90.12;100840.88;4919792;29;20497;-78
2021/03/15 01:23:09;;;;;;;25.83;7.32;;;8.40;99.90;;;8.54;89.92;100851.41;4936212;29;20427;-78
2021/03/15 01:25:39;;;;;;;24.80;8.43;;;8.40;99.90;;;8.34;90.35;100828.50;4936155;29;20047;-79
2021/03/15 01:28:12;;;;;;;15.55;6.63;;;8.40;99.90;;;8.51;90.47;100863.69;4936462;29;20040;-79
2021/03/15 01:30:41;;;;;;;18.65;7.55;;;8.40;99.90;;;8.48;90.14;100850.53;4935752;29;20462;-78
2021/03/15 01:33:09;;;;;;;19.67;7.22;;;8.40;99.90;;;8.53;90.28;100854.03;4936131;29;20458;-76
2021/03/15 01:35:40;;;;;;;15.35;6.25;;;8.40;99.90;;;8.25;90.57;100854.78;4936113;29;20062;-78
2021/03/15 01:38:07;;;;;;;13.77;6.10;;;8.20;99.90;;;8.60;90.33;100866.34;4919006;29;20055;-79
2021/03/15 01:40:39;;;;;;;16.98;7.22;;;8.40;99.90;;;8.52;90.35;100871.59;4936095;29;20127;-77
2021/03/15 01:43:08;;;;;;;14.30;6.32;;;8.40;99.90;;;8.58;90.04;100863.72;4935244;29;20050;-79
2021/03/15 01:45:36;;;;;;;17.13;6.60;;;8.40;99.90;;;7.85;89.88;100758.88;4935911;29;20051;-77
2021/03/15 01:48:11;;;;;;;16.13;6.30;;;8.40;99.90;;;8.64;89.42;100868.13;4918909;29;20055;-78
2021/03/15 01:50:39;;;;;;;18.35;5.95;;;8.50;99.90;;;8.57;89.45;100877.78;4935707;29;20044;-78
2021/03/15 01:53:07;;;;;;;17.98;6.88;;;8.50;99.90;;;8.71;89.02;100875.22;4935560;29;20052;-79
2021/03/15 01:55:38;;;;;;;17.92;6.65;;;8.60;99.90;;;8.69;88.99;100876.97;4935574;29;20043;-78
2021/03/15 01:58:06;;;;;;;;;;;8.60;99.90;;;8.53;89.48;100877.75;4936652;29;20083;-78
2021/03/15 02:00:37;;;;;;;17.02;6.32;;;8.50;99.90;;;8.42;89.53;100854.00;4935675;29;20639;-78
2021/03/15 02:03:11;;;;;;;19.67;6.70;;;8.40;99.90;;;8.75;89.59;100879.63;4918683;29;20075;-78
2021/03/15 02:05:42;;;;;;;21.27;7.13;;;8.60;99.90;;;8.56;89.38;100883.94;4935618;29;20410;-76
2021/03/15 02:08:12;;;;;;;;;;;8.50;99.90;;;8.77;89.00;100885.75;4936194;29;20401;-78
2021/03/15 02:10:40;;;;;;;17.77;7.20;;;8.60;99.90;;;8.84;88.48;100891.06;4918709;29;19923;-77
2021/03/15 02:13:53;;;;;;;18.13;5.95;;;8.70;99.90;;;8.82;87.65;100887.53;4935721;29;20043;-78
2021/03/15 02:16:38;;;;;;;19.35;7.45;;;8.70;99.90;;;8.73;88.23;100881.38;4893557;29;20052;-78
2021/03/15 02:19:58;;;;;;;21.17;6.57;;;8.70;99.90;;;8.93;87.53;100896.34;4935665;29;20047;-77
2021/03/15 02:22:36;;;;;;;14.60;6.35;;;8.80;99.90;;;8.74;87.81;100865.53;4935398;29;20102;-77
2021/03/15 02:25:45;;;;;;;17.75;6.40;;;8.70;99.90;;;8.67;87.89;100891.88;4918518;29;20054;-77
2021/03/15 02:28:49;;;;;;;19.55;6.72;;;8.60;99.90;;;8.60;88.36;100887.44;4935892;29;20067;-78
2021/03/15 02:32:16;;;;;;;18.10;7.07;;;8.50;99.90;;;8.61;87.69;100894.50;4935790;29;20501;-78
2021/03/15 02:35:06;;;;;;;14.68;6.82;;;8.40;99.90;;;8.22;87.54;100818.75;4932679;29;20458;-78
2021/03/15 02:38:04;;;;;;;19.58;6.47;;;8.50;99.90;;;8.71;87.26;100894.53;4935487;29;20067;-77
2021/03/15 02:40:36;;;;;;;16.48;6.47;;;8.60;99.90;;;8.72;87.23;100911.22;4935225;29;20063;-76
2021/03/15 02:43:09;;;;;;;18.67;6.88;;;8.60;99.90;;;8.48;87.48;100900.59;4935757;29;20055;-77
2021/03/15 02:45:37;;;;;;;15.15;7.50;;;8.50;99.90;;;8.51;88.25;100911.16;4935631;29;20047;-78
2021/03/15 02:48:12;;;;;;;17.52;6.93;;;8.40;99.90;;;8.51;87.18;100911.16;4935165;29;20054;-77
2021/03/15 02:50:43;;;;;;;17.25;6.53;;;8.40;99.90;;;8.22;87.95;100910.97;4935437;29;20051;-77
2021/03/15 02:53:18;;;;;;;20.30;7.47;;;8.30;99.90;;;8.27;87.62;100918.91;4935404;29;20104;-77
2021/03/15 02:55:49;;;;;;;17.75;6.85;;;8.20;99.90;;;8.23;87.79;100915.34;4938243;29;20457;-77
2021/03/15 02:58:23;;;;;;;16.63;6.72;;;8.20;99.90;;;8.40;87.31;100918.13;4921478;29;20055;-79
2021/03/15 03:00:53;;;;;;;20.40;7.22;;;8.20;99.90;;;8.33;87.59;100916.31;4938628;29;20051;-77
2021/03/15 03:03:22;;;;;;;17.27;6.82;;;8.20;99.90;;;8.48;87.02;100924.31;4938894;29;20071;-78
2021/03/15 03:05:53;;;;;;;15.25;6.93;;;8.30;99.90;;;8.19;86.45;100917.09;4921537;29;20055;-78
2021/03/15 03:08:23;;;;;;;17.20;6.78;;;8.30;99.90;;;8.40;86.76;100929.53;4938501;29;20103;-79
2021/03/15 03:10:52;;;;;;;17.08;6.97;;;8.30;99.90;;;8.23;87.10;100939.94;4938675;29;20052;-77
2021/03/15 03:13:26;;;;;;;19.35;6.60;;;8.20;99.90;;;8.23;86.96;100931.16;4921470;29;20051;-78
2021/03/15 03:15:57;;;;;;;18.97;7.93;;;8.10;99.90;;;8.39;87.69;100927.78;4938347;29;20044;-78
2021/03/15 03:18:28;;;;;;;19.10;7.35;;;8.30;99.90;;;8.45;86.71;100937.47;4938404;29;20577;-78
2021/03/15 03:20:58;;;;;;;21.13;7.18;;;8.30;99.90;;;8.19;87.40;100918.84;4938225;29;20580;-77
2021/03/15 03:23:32;;;;;;;21.52;7.07;;;8.20;99.90;;;8.45;87.58;100948.00;4938265;29;20051;-78
2021/03/15 03:26:01;;;;;;;24.02;6.85;;;8.30;99.90;;;8.28;87.44;100945.28;4937998;29;20035;-77
2021/03/15 03:28:29;;;;;;;19.67;7.60;;;8.20;99.90;;;8.20;87.80;100949.59;4938103;29;20107;-77
2021/03/15 03:30:58;;;;;;;21.50;7.70;;;8.10;99.90;;;8.23;88.00;100950.50;4938077;29;20111;-77
2021/03/15 03:33:29;;;;;;;20.35;7.80;;;8.10;99.90;;;8.23;88.20;100955.75;4938033;29;20506;-75
2021/03/15 03:36:00;;;;;;;21.52;8.18;;;8.10;99.90;;;8.36;87.82;100955.88;4938040;29;20047;-77
2021/03/15 03:38:39;;;;;;;18.02;7.82;;;8.20;99.90;;;8.48;87.43;100964.72;4921151;29;20055;-77
2021/03/15 03:41:07;;;;;;;18.08;7.65;;;8.30;99.90;;;8.42;86.91;100938.31;4938204;29;20052;-78
2021/03/15 03:43:37;;;;;;;19.33;7.30;;;8.40;99.90;;;8.54;86.56;100963.88;4937852;29;20067;-78
2021/03/15 03:46:05;;;;;;;17.88;7.22;;;8.40;99.90;;;8.43;86.78;100962.94;4921163;29;20099;-77
2021/03/15 03:48:35;;;;;;;21.38;8.32;;;8.30;99.90;;;8.30;87.08;100955.84;4938051;29;20058;-77
2021/03/15 03:51:05;;;;;;;13.18;7.50;;;8.30;99.90;;;8.41;86.96;100972.59;4937981;29;20048;-76
2021/03/15 03:53:41;;;;;;;24.48;8.27;;;8.30;99.90;;;8.42;86.44;100969.94;4937648;29;20505;-79
2021/03/15 03:56:14;;;;;;;17.20;7.20;;;8.30;99.90;;;8.38;85.91;100970.81;4937766;29;20056;-77
2021/03/15 03:58:45;;;;;;;20.88;8.10;;;8.30;99.90;;;8.39;87.07;100979.59;4920817;29;20062;-78
2021/03/15 04:01:13;;;;;;;18.08;8.20;;;8.20;99.90;;;8.48;86.36;100961.22;4937776;29;20040;-78
2021/03/15 04:03:45;;;;;;;18.13;7.82;;;8.40;99.90;;;8.52;85.38;100984.94;4937761;29;20043;-78
2021/03/15 04:06:15;;;;;;;19.13;7.50;;;8.40;99.90;;;8.54;85.68;100990.22;4936819;29;20561;-78
2021/03/15 04:09:03;;;;;;;25.70;8.07;;;8.40;99.90;;;8.41;85.84;100993.66;4937413;29;20043;-78
2021/03/15 04:11:34;;;;;;;20.97;8.33;;;8.30;99.90;;;8.38;85.79;100993.66;4937689;29;20083;-79
2021/03/15 04:14:02;;;;;;;;;;;8.30;99.90;;;8.66;85.06;101001.75;4938021;29;20299;-77
2021/03/15 04:16:33;;;;;;;16.83;7.15;;;8.50;99.90;;;8.59;85.07;100997.31;4937560;29;19927;-77
2021/03/15 04:19:04;;;;;;;;;;;8.50;99.90;;;8.00;84.89;100931.03;4937921;29;20063;-77
2021/03/15 04:21:35;;;;;;;18.95;8.95;;;8.30;99.90;;;8.54;85.44;101011.31;4937759;29;19923;-79
2021/03/15 04:24:04;;;;;;;17.85;7.75;;;8.40;99.90;;;8.60;85.04;101012.25;4937428;29;20047;-77
2021/03/15 04:26:33;;;;;;;17.73;7.57;;;8.40;99.90;;;8.57;85.51;101017.50;4937238;29;20073;-78
2021/03/15 04:29:02;;;;;;;17.65;7.57;;;8.40;99.90;;;8.68;85.18;101022.84;4937028;29;20047;-78
2021/03/15 04:31:30;;;;;;;18.83;7.75;;;8.50;99.90;;;8.75;84.66;101030.78;4937306;29;20047;-78
2021/03/15 04:33:59;;;;;;;27.45;9.65;;;8.60;99.90;;;8.58;85.04;101023.66;4937463;29;20076;-78
2021/03/15 04:36:28;;;;;;;19.27;7.38;;;8.50;99.90;;;8.45;85.92;101033.25;4937379;29;20055;-76
2021/03/15 04:38:59;;;;;;;20.10;7.70;;;8.30;99.90;;;8.52;85.12;101034.16;4936832;29;20047;-79
2021/03/15 04:41:27;;;;;;;;;;;8.40;99.90;;;8.47;85.08;101039.41;4937492;29;20044;-79
2021/03/15 04:43:56;;;;;;;18.98;7.70;;;8.40;99.90;;;8.54;85.15;101045.59;4936960;29;19970;-79
2021/03/15 04:46:24;;;;;;;21.07;7.10;;;8.40;99.90;;;8.37;85.87;101026.16;4919833;29;20509;-78
2021/03/15 04:48:52;;;;;;;19.55;7.15;;;8.40;99.90;;;8.48;85.87;101053.47;4936848;29;20287;-79
2021/03/15 04:51:21;;;;;;;21.65;6.88;;;8.30;99.90;;;8.72;85.33;101053.63;4919757;29;20367;-78
2021/03/15 04:53:49;;;;;;;21.05;7.38;;;8.50;99.90;;;8.68;85.64;101058.00;4919778;29;20466;-78
2021/03/15 04:56:19;;;;;;;19.85;6.95;;;8.50;99.90;;;8.55;85.09;101034.19;4936696;29;20064;-78
2021/03/15 04:58:50;;;;;;;19.85;6.43;;;8.60;99.90;;;8.60;84.72;101043.88;4936469;29;20044;-78
2021/03/15 05:01:19;;;;;;;21.25;6.13;;;8.60;99.90;;;8.82;83.89;101066.00;4936438;29;20394;-78
2021/03/15 05:03:51;;;;;;;19.43;6.03;;;8.80;99.90;;;8.55;84.82;101074.63;4919533;29;20048;-78
2021/03/15 05:06:20;;;;;;;16.60;6.60;;;8.50;99.90;;;7.95;85.27;100982.78;4936298;29;20066;-71
2021/03/15 05:08:50;;;;;;;22.20;6.38;;;8.40;99.90;;;8.78;84.09;101080.03;4936333;29;20091;-76
2021/03/15 05:11:20;;;;;;;;;;;8.60;99.90;;;8.69;84.04;101075.56;4936975;29;20052;-76
2021/03/15 05:13:47;;;;;;;19.02;6.63;;;8.60;99.90;;;8.48;83.54;101088.59;4936102;29;20265;-73
2021/03/15 05:16:15;;;;;;;21.27;6.30;;;8.50;99.90;;;8.46;83.95;101084.22;4936091;29;20868;-79
2021/03/15 05:18:43;;;;;;;19.17;6.00;;;8.40;99.90;;;8.46;83.50;101086.84;4918472;29;20055;-75
2021/03/15 05:21:11;;;;;;;15.98;6.10;;;8.40;99.90;;;8.54;82.81;101087.75;4936053;29;20455;-73
2021/03/15 05:23:40;;;;;;;15.40;5.72;;;8.50;99.90;;;8.58;82.33;101094.81;4936135;29;20051;-75
2021/03/15 05:26:08;;;;;;;23.25;6.93;;;8.50;99.90;;;8.55;81.98;101094.81;4936116;29;20099;-74
2021/03/15 05:28:37;;;;;;;19.10;6.00;;;8.40;99.90;;;8.65;81.52;101089.59;4918812;29;20082;-75
2021/03/15 05:31:05;;;;;;;18.58;6.88;;;8.60;99.90;;;8.24;82.88;101091.03;4935753;29;20197;-75
2021/03/15 05:33:37;;;;;;;11.32;5.15;;;8.20;99.90;;;8.30;82.47;101085.84;4936413;29;20040;-74
2021/03/15 05:36:09;;;;;;;18.67;5.88;;;8.30;99.90;;;8.24;83.46;101083.13;4935920;29;20051;-74
2021/03/15 05:38:37;;;;;;;17.95;5.60;;;8.10;99.90;;;8.32;82.17;101099.03;4935844;29;20111;-75
2021/03/15 05:41:09;;;;;;;18.30;6.55;;;8.20;99.90;;;8.26;82.64;101088.44;4935779;29;20044;-73
2021/03/15 05:43:53;;;;;;;20.17;5.82;;;8.20;99.90;;;8.21;82.67;101076.06;4919005;29;20055;-75
2021/03/15 05:47:04;;;;;;;25.52;6.63;;;8.20;99.90;;;8.20;83.15;101103.31;4935985;29;20441;-75
2021/03/15 05:50:10;;;;;;;;;;;8.20;99.90;;;8.28;84.01;101110.41;4936350;29;20106;-75
2021/03/15 05:52:47;;;;;;;19.23;7.03;;;8.10;99.90;;;8.35;83.66;101109.59;4933880;29;19930;-75
2021/03/15 05:55:48;;;;;;;17.50;7.00;;;8.20;99.90;;;8.37;83.78;101107.84;4935913;29;20043;-75
2021/03/15 05:59:20;;;;;;;24.83;6.40;;;8.20;99.90;;;8.29;84.34;101114.78;4935526;29;20069;-74
2021/03/15 06:02:25;;;;;;;17.48;6.00;;;8.10;99.90;;;8.36;84.51;101124.53;4935549;29;20044;-75
2021/03/15 06:05:18;;;;;;;19.85;6.47;;;8.20;99.90;;;8.21;84.08;101105.06;4899703;29;20118;-75
2021/03/15 06:07:48;;;;;;;24.73;7.22;;;8.20;99.90;;;8.13;84.97;101100.56;4918530;29;20048;-75
2021/03/15 06:10:57;;;;;;;25.38;6.53;;;8.10;99.90;;;8.26;85.61;101120.94;4935666;29;20147;-75
2021/03/15 06:13:25;;;;;;;23.50;6.50;;;8.10;99.90;;;8.15;86.53;101122.53;4935466;29;20099;-75
2021/03/15 06:15:53;;;;;;;28.85;6.72;;;8.00;99.90;;;8.22;86.53;101132.28;4918132;29;20087;-75
2021/03/15 06:18:22;;;;;;;27.63;6.38;;;8.10;99.90;;;8.33;86.18;101133.28;4935614;29;20056;-75
2021/03/15 06:20:50;;;;;;;26.35;6.88;;;8.10;99.90;;;8.30;86.71;101129.75;4935321;29;20044;-75
2021/03/15 06:23:18;;;;;;;20.58;6.82;;;8.10;99.90;;;8.31;86.72;101129.75;4935538;29;20043;-74
2021/03/15 06:25:47;;;;;;;27.80;6.88;;;8.10;99.90;;;8.33;86.33;101143.84;4935478;29;20111;-75
2021/03/15 06:28:16;;;;;;;23.90;7.05;;;8.20;99.90;;;8.45;86.05;101143.06;4935132;29;20127;-74
2021/03/15 06:30:47;;;;;;;30.88;7.72;;;8.30;99.90;;;8.39;86.66;101145.63;4921015;29;20574;-75
2021/03/15 06:33:17;;;;;;;24.20;7.10;;;8.30;99.90;;;8.38;86.96;101154.44;4939379;29;20051;-75
2021/03/15 06:35:46;;;;;;;26.70;7.15;;;8.20;99.90;;;8.42;86.46;101143.91;4939269;29;20044;-75
2021/03/15 06:38:17;;;;;;;25.95;6.75;;;8.30;99.90;;;8.39;86.70;101149.16;4939185;29;20048;-75
2021/03/15 06:40:59;;;;;;;23.35;6.50;;;8.30;99.90;;;8.41;86.85;101154.44;4938862;29;20064;-75
2021/03/15 06:43:28;;;;;;;29.92;6.75;;;8.30;99.90;;;8.48;86.53;101159.78;4938773;29;20405;-75
2021/03/15 06:45:57;;;;;;;27.23;6.53;;;8.30;99.90;;;8.57;86.51;101169.53;4939318;29;20091;-76
2021/03/15 06:48:26;;;;;;;35.92;7.60;;;8.40;99.90;;;8.51;86.63;101169.47;4921779;29;20455;-74
2021/03/15 06:50:56;;;;;;;35.50;8.20;;;8.40;99.90;;;8.58;86.64;101160.72;4938681;29;20047;-74
2021/03/15 06:53:24;;;;;;;30.85;6.65;;;8.40;99.90;;;8.53;86.52;101158.09;4921877;29;20056;-74
2021/03/15 06:55:53;;;;;;;25.05;7.20;;;8.50;99.90;;;8.53;86.20;101178.28;4938948;29;20040;-75
2021/03/15 06:58:26;;;;;;;26.80;6.95;;;8.40;99.90;;;8.38;86.14;101186.06;4939052;29;20040;-75
2021/03/15 07:01:19;;;;;;;28.80;6.97;;;8.30;99.90;;;8.29;86.74;101188.56;4939230;29;20051;-75
2021/03/15 07:03:50;;;;;;;32.78;7.40;;;8.20;99.90;;;8.29;86.26;101196.47;4921315;29;20068;-75
2021/03/15 07:06:19;;;;;;;34.20;7.20;;;8.20;99.90;;;8.30;86.31;101206.16;4938704;29;20044;-75
2021/03/15 07:08:47;;;;;;;32.40;7.63;;;8.20;99.90;;;8.26;86.43;101194.72;4938696;29;20126;-75
2021/03/15 07:11:22;;;;;;;31.60;6.15;;;8.20;99.90;;;8.39;86.37;101222.06;4921652;29;20362;-73
2021/03/15 07:13:50;;;;;;;29.55;7.07;;;8.30;99.90;;;8.23;85.79;101208.72;4938559;29;20054;-74
2021/03/15 07:16:26;;;;;;;33.88;7.43;;;8.30;99.90;;;8.52;85.91;101229.22;4938594;29;20043;-74
2021/03/15 07:18:56;;;;;;;33.67;7.93;;;8.40;99.90;;;8.59;85.44;101263.59;4938577;29;20047;-74
2021/03/15 07:21:38;;;;;;;33.78;7.85;;;8.50;99.90;;;8.83;85.31;101242.72;4938165;29;20134;-74
2021/03/15 07:24:10;;;;;;;28.98;7.28;;;8.60;99.90;;;8.94;84.08;101235.75;4938507;29;20075;-74
2021/03/15 07:26:43;;;;;;;31.38;7.55;;;8.70;99.90;;;9.09;83.71;101243.81;4938565;29;20044;-74
2021/03/15 07:29:14;;;;;;;36.05;7.65;;;9.00;99.90;;;9.31;82.91;101249.25;4937995;29;20134;-73
2021/03/15 07:31:45;;;;;;;33.38;8.23;;;9.10;99.90;;;9.41;82.05;101253.69;4921219;29;20055;-74
2021/03/15 07:34:19;;;;;;;34.85;6.20;;;9.20;99.90;;;9.63;80.51;101248.56;4921198;29;20497;-74
2021/03/15 07:36:53;;;;;;;32.80;6.80;;;9.40;99.90;;;9.77;79.20;101251.28;4937913;29;20051;-74
2021/03/15 07:39:21;;;;;;;22.90;6.57;;;9.60;99.90;;;9.71;77.94;101227.47;4938101;29;20055;-74
2021/03/15 07:41:51;;;;;;;34.97;6.57;;;9.70;99.90;;;10.09;76.51;101247.00;4936965;29;20039;-74
2021/03/15 07:44:26;;;;;;;23.27;5.95;;;10.00;99.90;;;9.99;75.45;101256.66;4938173;29;20047;-74
2021/03/15 07:46:55;;;;;;;28.58;6.05;;;10.00;99.90;;;10.18;75.03;101262.03;4938036;29;20043;-74
2021/03/15 07:49:30;;;;;;;23.13;7.38;;;10.00;99.90;;;10.44;74.66;101265.63;4938011;29;20054;-74
2021/03/15 07:52:01;;;;;;;26.75;6.50;;;10.20;99.90;;;10.62;73.85;101270.97;4920890;29;20060;-74
2021/03/15 07:54:32;;;;;;;35.67;7.63;;;10.40;99.90;;;10.65;73.31;101274.50;4937969;29;20048;-73
2021/03/15 07:57:32;;;;;;;28.80;7.13;;;10.50;99.90;;;10.60;72.32;101270.97;4920762;29;20123;-74
2021/03/15 07:59:59;;;;;;;26.85;5.97;;;10.50;99.90;;;10.39;72.72;101273.56;4863186;29;20057;-73
2021/03/15 08:02:30;;;;;;;23.42;7.28;;;10.40;99.90;;;9.93;73.62;101253.97;4925174;29;20074;-74
2021/03/15 08:05:01;;;;;;;30.98;7.45;;;10.10;99.90;;;9.83;74.41;101283.88;4920482;29;20067;-74
2021/03/15 08:07:31;;;;;;;27.42;6.75;;;9.80;99.90;;;9.74;75.13;101283.81;4920393;29;20111;-74
2021/03/15 08:10:00;;;;;;;26.85;6.63;;;9.70;99.90;;;9.70;75.39;101292.59;4937823;29;20043;-74
2021/03/15 08:12:35;;;;;;;26.88;7.45;;;9.60;99.90;;;9.68;75.93;101306.66;4920637;29;20055;-74
2021/03/15 08:15:07;;;;;;;26.20;6.25;;;9.50;99.90;;;9.42;75.72;101277.47;4937146;29;20091;-74
2021/03/15 08:17:39;;;;;;;27.67;6.00;;;9.50;99.90;;;9.63;76.84;101272.31;4920394;29;20051;-74
2021/03/15 08:20:08;;;;;;;29.08;6.75;;;9.60;99.90;;;9.74;76.29;101304.97;4937403;29;20047;-75
2021/03/15 08:22:42;;;;;;;30.40;6.90;;;9.70;99.90;;;9.36;75.94;101206.16;4937491;29;20154;-74
2021/03/15 08:25:11;;;;;;;24.77;6.18;;;9.80;99.90;;;10.26;74.90;101310.56;4920292;29;20083;-74
2021/03/15 08:27:41;;;;;;;25.85;6.57;;;10.10;99.90;;;10.04;74.61;101310.41;4936792;29;20039;-74
2021/03/15 08:30:17;;;;;;;28.80;6.28;;;10.00;99.90;;;9.90;74.61;101311.22;4919651;29;20066;-74
2021/03/15 08:32:46;;;;;;;28.73;6.63;;;9.80;99.90;;;10.04;74.99;101317.47;4936557;29;20047;-74
2021/03/15 08:35:16;;;;;;;27.58;6.47;;;9.90;99.90;;;10.07;74.03;101325.38;4937318;29;20158;-73
2021/03/15 08:37:57;;;;;;;25.45;6.25;;;9.90;99.90;;;9.84;73.89;101320.00;4937086;29;20091;-74
2021/03/15 08:41:05;;;;;;;20.05;6.13;;;9.80;99.90;;;9.97;73.29;101332.38;4937035;29;20410;-73
2021/03/15 08:43:54;;;;;;;22.80;6.35;;;9.90;99.90;;;10.09;73.28;101347.44;4937069;29;20090;-75
2021/03/15 08:46:35;;;;;;;24.17;6.18;;;9.90;99.90;;;10.12;71.52;101342.22;4931987;29;20056;-74
2021/03/15 08:49:09;;;;;;;17.35;5.78;;;10.00;99.90;;;9.79;73.61;101353.41;4936870;29;20548;-74
2021/03/15 08:51:49;;;;;;;22.73;5.55;;;9.70;99.90;;;9.74;73.31;101349.88;4936596;29;20047;-74
2021/03/15 08:54:46;;;;;;;20.52;5.97;;;9.80;99.90;;;9.66;75.35;101358.59;4936969;29;20043;-74
2021/03/15 08:57:32;;;;;;;26.08;6.40;;;9.60;99.90;;;9.83;74.74;101363.13;4919492;29;20059;-75
2021/03/15 09:00:00;;;;;;;26.92;7.90;;;9.70;99.90;;;9.27;77.37;101363.59;4919636;29;20056;-73
2021/03/15 09:02:38;;;;;;;22.65;6.28;;;9.30;99.90;;;9.16;77.47;101360.84;4936578;29;20402;-74
2021/03/15 09:05:25;;;;;;;30.15;6.63;;;9.10;99.90;;;9.05;78.19;101359.88;4936390;29;20440;-73
2021/03/15 09:07:55;;;;;;;22.13;5.72;;;9.00;99.90;;;8.68;77.85;101381.44;4936494;29;20051;-74
2021/03/15 09:10:44;;;;;;;24.52;6.57;;;8.70;99.90;;;8.20;77.75;101302.66;4936273;29;20055;-74
2021/03/15 09:13:29;;;;;;;24.05;6.13;;;8.50;99.90;;;8.54;78.64;101338.22;4936560;29;20450;-73
2021/03/15 09:16:03;;;;;;;19.98;5.72;;;8.60;99.90;;;8.96;78.21;101386.16;4919336;29;20059;-73
2021/03/15 09:19:00;;;;;;;19.70;5.95;;;8.80;99.90;;;9.34;75.80;101384.78;4936193;29;20469;-73
2021/03/15 09:21:51;;;;;;;22.52;5.63;;;9.20;99.90;;;9.46;74.72;101387.53;4936399;29;20048;-75
2021/03/15 09:24:59;;;;;;;25.70;5.60;;;9.40;99.90;;;9.28;72.59;101357.41;4936385;29;20148;-75
2021/03/15 09:27:36;;;;;;;19.65;5.70;;;9.40;99.90;;;9.17;72.43;101369.66;4877278;29;20168;-74
2021/03/15 09:30:14;;;;;;;20.65;5.53;;;9.20;99.90;;;9.19;72.57;101374.09;4931218;29;20051;-74
2021/03/15 09:32:46;;;;;;;22.75;5.35;;;9.30;99.90;;;9.36;72.95;101406.78;4935972;29;20044;-74
2021/03/15 09:35:18;;;;;;;20.35;5.80;;;9.30;99.90;;;9.65;73.45;101409.66;4936172;29;20048;-74
2021/03/15 09:37:53;;;;;;;26.15;6.38;;;9.50;99.90;;;9.99;72.94;101415.22;4936053;29;20047;-74
2021/03/15 09:40:27;;;;;;;21.52;5.95;;;9.80;99.90;;;9.76;72.40;101379.81;4935784;29;20521;-75
2021/03/15 09:42:55;;;;;;;19.20;6.07;;;9.80;99.90;;;9.92;72.72;101423.97;4918881;29;20493;-74
2021/03/15 09:45:31;;;;;;;27.45;6.28;;;9.80;99.90;;;9.99;72.65;101414.31;4918749;29;20052;-74
2021/03/15 09:47:59;;;;;;;26.70;6.45;;;9.90;99.90;;;10.05;71.90;101419.66;4918844;29;20130;-73
2021/03/15 09:50:29;;;;;;;25.10;5.97;;;9.90;99.90;;;10.21;71.63;101431.22;4918770;29;20138;-74
2021/03/15 09:53:11;;;;;;;23.05;6.28;;;10.00;99.90;;;10.29;70.56;101424.22;4918687;29;20051;-74
2021/03/15 09:55:48;;;;;;;18.48;5.15;;;10.20;99.90;;;10.64;68.89;101434.13;4918747;29;20051;-74
2021/03/15 09:58:19;;;;;;;17.58;5.25;;;10.50;99.90;;;10.77;68.07;101411.22;4935441;29;20098;-74
2021/03/15 10:00:54;;;;;;;20.63;5.53;;;10.70;99.90;;;10.20;67.27;101360.75;4918659;29;20052;-74
2021/03/15 10:03:42;;;;;;;21.98;5.97;;;10.50;99.90;;;10.50;66.04;101434.91;4934279;29;20402;-74
2021/03/15 10:06:29;;;;;;;21.30;5.25;;;10.50;99.90;;;10.53;65.02;101425.22;4935419;29;20054;-74
2021/03/15 10:09:05;;;;;;;21.60;5.97;;;10.40;99.90;;;10.81;65.56;101436.81;4935305;29;20056;-74
2021/03/15 10:11:46;;;;;;;21.73;6.32;;;10.60;99.90;;;10.58;66.02;101444.69;4935746;29;20043;-73
2021/03/15 10:14:21;;;;;;;23.83;4.95;;;10.50;99.90;;;10.32;66.50;101440.09;4935660;29;20379;-74
2021/03/15 10:17:21;;;;;;;25.75;6.57;;;10.30;99.90;;;9.92;68.80;101410.75;4916887;29;20047;-74
2021/03/15 10:19:57;;;;;;;23.05;5.15;;;9.90;99.90;;;9.44;72.69;101436.78;4918490;29;20043;-72
2021/03/15 10:22:24;;;;;;;15.43;4.85;;;9.40;99.90;;;9.00;73.49;101459.22;4918404;29;20051;-74
2021/03/15 10:24:59;;;;;;;14.05;5.07;;;9.00;99.90;;;8.95;74.47;101460.88;4918675;29;20056;-73
2021/03/15 10:27:33;;;;;;;13.32;4.60;;;8.80;99.90;;;8.78;72.23;101446.63;4918318;29;20143;-74
2021/03/15 10:30:07;;;;;;;16.10;5.38;;;8.70;99.90;;;9.01;72.16;101471.50;4918428;29;20147;-74
2021/03/15 10:32:37;;;;;;;16.45;4.60;;;8.80;99.90;;;9.35;72.38;101473.63;4918394;29;20509;-72
2021/03/15 10:35:08;;;;;;;17.45;5.50;;;9.20;99.90;;;9.14;73.02;101435.59;4918653;29;20405;-74
2021/03/15 10:37:44;;;;;;;20.55;5.78;;;9.20;99.90;;;9.34;74.01;101468.34;4918420;29;20051;-74
2021/03/15 10:40:23;;;;;;;23.52;5.78;;;9.30;99.90;;;9.47;74.44;101476.41;4935448;29;20048;-74
2021/03/15 10:42:54;;;;;;;23.27;5.80;;;9.40;99.90;;;9.64;73.71;101480.09;4918299;29;20101;-74
2021/03/15 10:45:28;;;;;;;32.55;5.88;;;9.50;99.90;;;9.70;73.47;101468.69;4918724;29;20062;-73
2021/03/15 10:48:04;;;;;;;25.40;6.30;;;9.60;99.90;;;9.70;72.51;101487.19;4918161;29;20051;-74
2021/03/15 10:50:42;;;;;;;23.65;6.68;;;9.60;99.90;;;9.92;72.78;101491.78;4918257;29;20502;-74